sensor_id;sensor_type;location;lat;lon;timestamp;temperature;humidity
23335;DHT22;11839;48.598;8.870;2023-08-06T00:00:22;18.60;99.90
23335;DHT22;11839;48.598;8.870;2023-08-06T00:02:49;18.50;99.90
23335;DHT22;11839;48.598;8.870;2023-08-06T00:05:16;18.10;99.90
23335;DHT22;11839;48.598;8.870;2023-08-06T00:07:43;17.90;99.90
23335;DHT22;11839;48.598;8.870;2023-08-06T00:10:10;17.70;99.90
23335;DHT22;11839;48.598;8.870;2023-08-06T00:12:37;17.60;99.90
23335;DHT22;11839;48.598;8.870;2023-08-06T00:15:06;17.50;99.90
23335;DHT22;11839;48.598;8.870;2023-08-06T00:17:33;17.30;99.90
23335;DHT22;11839;48.598;8.870;2023-08-06T00:20:00;17.30;99.90
23335;DHT22;11839;48.598;8.870;2023-08-06T00:22:30;17.50;99.90
23335;DHT22;11839;48.598;8.870;2023-08-06T00:24:57;17.50;99.90
23335;DHT22;11839;48.598;8.870;2023-08-06T00:27:24;17.60;99.90
23335;DHT22;11839;48.598;8.870;2023-08-06T00:29:50;17.80;99.90
23335;DHT22;11839;48.598;8.870;2023-08-06T00:32:19;17.80;99.90
23335;DHT22;11839;48.598;8.870;2023-08-06T00:34:46;17.70;99.90
23335;DHT22;11839;48.598;8.870;2023-08-06T00:37:15;17.70;99.90
23335;DHT22;11839;48.598;8.870;2023-08-06T00:39:42;17.70;99.90
23335;DHT22;11839;48.598;8.870;2023-08-06T00:42:08;18.20;99.90
23335;DHT22;11839;48.598;8.870;2023-08-06T00:44:35;18.20;99.90
23335;DHT22;11839;48.598;8.870;2023-08-06T00:47:02;18.20;99.90
23335;DHT22;11839;48.598;8.870;2023-08-06T00:49:31;18.20;99.90
23335;DHT22;11839;48.598;8.870;2023-08-06T00:51:58;18.30;99.90
23335;DHT22;11839;48.598;8.870;2023-08-06T00:54:26;18.30;99.90
23335;DHT22;11839;48.598;8.870;2023-08-06T00:56:54;18.40;99.90
23335;DHT22;11839;48.598;8.870;2023-08-06T00:59:20;18.20;99.90
23335;DHT22;11839;48.598;8.870;2023-08-06T01:01:47;18.10;99.90
23335;DHT22;11839;48.598;8.870;2023-08-06T01:04:16;17.90;99.90
23335;DHT22;11839;48.598;8.870;2023-08-06T01:06:47;18.10;99.90
23335;DHT22;11839;48.598;8.870;2023-08-06T01:09:24;18.00;99.90
23335;DHT22;11839;48.598;8.870;2023-08-06T01:11:59;17.90;99.90
23335;DHT22;11839;48.598;8.870;2023-08-06T01:14:32;17.80;99.90
23335;DHT22;11839;48.598;8.870;2023-08-06T01:17:01;17.80;99.90
23335;DHT22;11839;48.598;8.870;2023-08-06T01:19:29;17.70;99.90
23335;DHT22;11839;48.598;8.870;2023-08-06T01:21:57;17.80;99.90
23335;DHT22;11839;48.598;8.870;2023-08-06T01:24:23;17.90;99.90
23335;DHT22;11839;48.598;8.870;2023-08-06T01:26:57;17.90;99.90
23335;DHT22;11839;48.598;8.870;2023-08-06T01:29:31;17.90;99.90
23335;DHT22;11839;48.598;8.870;2023-08-06T01:32:02;17.90;99.90
23335;DHT22;11839;48.598;8.870;2023-08-06T01:34:32;17.90;99.90
23335;DHT22;11839;48.598;8.870;2023-08-06T01:37:02;18.10;99.90
23335;DHT22;11839;48.598;8.870;2023-08-06T01:39:32;18.10;99.90
23335;DHT22;11839;48.598;8.870;2023-08-06T01:41:59;18.10;99.90
23335;DHT22;11839;48.598;8.870;2023-08-06T01:44:26;18.10;99.90
23335;DHT22;11839;48.598;8.870;2023-08-06T01:46:53;18.10;99.90
23335;DHT22;11839;48.598;8.870;2023-08-06T01:49:19;18.00;99.90
23335;DHT22;11839;48.598;8.870;2023-08-06T01:51:46;17.80;99.90
23335;DHT22;11839;48.598;8.870;2023-08-06T01:54:14;17.40;99.90
23335;DHT22;11839;48.598;8.870;2023-08-06T01:56:41;17.10;99.90
23335;DHT22;11839;48.598;8.870;2023-08-06T01:59:08;17.10;99.90
23335;DHT22;11839;48.598;8.870;2023-08-06T02:01:35;17.00;99.90
23335;DHT22;11839;48.598;8.870;2023-08-06T02:04:01;16.90;99.90
23335;DHT22;11839;48.598;8.870;2023-08-06T02:06:28;16.90;99.90
23335;DHT22;11839;48.598;8.870;2023-08-06T02:08:55;16.70;99.90
23335;DHT22;11839;48.598;8.870;2023-08-06T02:11:23;16.50;99.90
23335;DHT22;11839;48.598;8.870;2023-08-06T02:13:50;16.50;99.90
23335;DHT22;11839;48.598;8.870;2023-08-06T02:16:17;16.50;99.90
23335;DHT22;11839;48.598;8.870;2023-08-06T02:18:44;16.60;99.90
23335;DHT22;11839;48.598;8.870;2023-08-06T02:21:10;16.70;99.90
23335;DHT22;11839;48.598;8.870;2023-08-06T02:23:37;16.40;99.90
23335;DHT22;11839;48.598;8.870;2023-08-06T02:26:04;16.00;99.90
23335;DHT22;11839;48.598;8.870;2023-08-06T02:28:33;15.80;99.90
23335;DHT22;11839;48.598;8.870;2023-08-06T02:30:59;15.60;99.90
23335;DHT22;11839;48.598;8.870;2023-08-06T02:33:26;15.60;99.90
23335;DHT22;11839;48.598;8.870;2023-08-06T02:35:59;15.80;99.90
23335;DHT22;11839;48.598;8.870;2023-08-06T02:38:26;16.00;99.90
23335;DHT22;11839;48.598;8.870;2023-08-06T02:40:53;16.10;99.90
23335;DHT22;11839;48.598;8.870;2023-08-06T02:43:20;16.10;99.90
23335;DHT22;11839;48.598;8.870;2023-08-06T02:45:49;15.80;99.90
23335;DHT22;11839;48.598;8.870;2023-08-06T02:48:16;16.00;99.90
23335;DHT22;11839;48.598;8.870;2023-08-06T02:50:43;16.00;99.90
23335;DHT22;11839;48.598;8.870;2023-08-06T02:53:10;16.20;99.90
23335;DHT22;11839;48.598;8.870;2023-08-06T02:55:37;16.10;99.90
23335;DHT22;11839;48.598;8.870;2023-08-06T02:58:04;16.30;99.90
23335;DHT22;11839;48.598;8.870;2023-08-06T03:00:31;16.50;99.90
23335;DHT22;11839;48.598;8.870;2023-08-06T03:02:59;16.40;99.90
23335;DHT22;11839;48.598;8.870;2023-08-06T03:05:25;16.60;99.90
23335;DHT22;11839;48.598;8.870;2023-08-06T03:07:52;16.80;99.90
23335;DHT22;11839;48.598;8.870;2023-08-06T03:10:19;16.90;99.90
23335;DHT22;11839;48.598;8.870;2023-08-06T03:12:46;17.00;99.90
23335;DHT22;11839;48.598;8.870;2023-08-06T03:15:13;17.20;99.90
23335;DHT22;11839;48.598;8.870;2023-08-06T03:17:39;17.10;99.90
23335;DHT22;11839;48.598;8.870;2023-08-06T03:20:08;17.10;99.90
23335;DHT22;11839;48.598;8.870;2023-08-06T03:22:35;17.10;99.90
23335;DHT22;11839;48.598;8.870;2023-08-06T03:25:02;16.90;99.90
23335;DHT22;11839;48.598;8.870;2023-08-06T03:27:29;16.50;99.90
23335;DHT22;11839;48.598;8.870;2023-08-06T03:29:56;16.30;99.90
23335;DHT22;11839;48.598;8.870;2023-08-06T03:32:22;16.10;99.90
23335;DHT22;11839;48.598;8.870;2023-08-06T03:34:49;16.10;99.90
23335;DHT22;11839;48.598;8.870;2023-08-06T03:37:17;16.30;99.90
23335;DHT22;11839;48.598;8.870;2023-08-06T03:39:44;16.70;99.90
23335;DHT22;11839;48.598;8.870;2023-08-06T03:42:11;16.20;99.90
23335;DHT22;11839;48.598;8.870;2023-08-06T03:44:38;16.30;99.90
23335;DHT22;11839;48.598;8.870;2023-08-06T03:47:05;16.30;99.90
23335;DHT22;11839;48.598;8.870;2023-08-06T03:49:32;16.10;99.90
23335;DHT22;11839;48.598;8.870;2023-08-06T03:51:58;15.90;99.90
23335;DHT22;11839;48.598;8.870;2023-08-06T03:54:26;16.00;99.90
23335;DHT22;11839;48.598;8.870;2023-08-06T03:56:53;15.90;99.90
23335;DHT22;11839;48.598;8.870;2023-08-06T03:59:20;16.10;99.90
23335;DHT22;11839;48.598;8.870;2023-08-06T04:01:47;16.40;99.90
23335;DHT22;11839;48.598;8.870;2023-08-06T04:04:13;16.60;99.90
23335;DHT22;11839;48.598;8.870;2023-08-06T04:06:40;16.70;99.90
23335;DHT22;11839;48.598;8.870;2023-08-06T04:09:07;16.60;99.90
23335;DHT22;11839;48.598;8.870;2023-08-06T04:11:35;16.80;99.90
23335;DHT22;11839;48.598;8.870;2023-08-06T04:14:02;16.60;99.90
23335;DHT22;11839;48.598;8.870;2023-08-06T04:16:28;16.90;99.90
23335;DHT22;11839;48.598;8.870;2023-08-06T04:18:55;17.20;99.90
23335;DHT22;11839;48.598;8.870;2023-08-06T04:21:22;17.30;99.90
23335;DHT22;11839;48.598;8.870;2023-08-06T04:23:48;17.00;99.90
23335;DHT22;11839;48.598;8.870;2023-08-06T04:26:15;17.10;99.90
23335;DHT22;11839;48.598;8.870;2023-08-06T04:28:43;17.10;99.90
23335;DHT22;11839;48.598;8.870;2023-08-06T04:31:10;16.90;99.90
23335;DHT22;11839;48.598;8.870;2023-08-06T04:33:37;16.70;99.90
23335;DHT22;11839;48.598;8.870;2023-08-06T04:36:04;16.60;99.90
23335;DHT22;11839;48.598;8.870;2023-08-06T04:38:31;16.60;99.90
23335;DHT22;11839;48.598;8.870;2023-08-06T04:40:58;16.70;99.90
23335;DHT22;11839;48.598;8.870;2023-08-06T04:43:25;16.70;99.90
23335;DHT22;11839;48.598;8.870;2023-08-06T04:45:54;16.70;99.90
23335;DHT22;11839;48.598;8.870;2023-08-06T04:48:21;16.90;99.90
23335;DHT22;11839;48.598;8.870;2023-08-06T04:50:49;16.90;99.90
23335;DHT22;11839;48.598;8.870;2023-08-06T04:53:16;16.80;99.90
23335;DHT22;11839;48.598;8.870;2023-08-06T04:55:43;16.90;99.90
23335;DHT22;11839;48.598;8.870;2023-08-06T04:58:10;17.00;99.90
23335;DHT22;11839;48.598;8.870;2023-08-06T05:00:37;17.10;99.90
23335;DHT22;11839;48.598;8.870;2023-08-06T05:03:06;17.20;99.90
23335;DHT22;11839;48.598;8.870;2023-08-06T05:05:33;17.30;99.90
23335;DHT22;11839;48.598;8.870;2023-08-06T05:07:59;17.30;99.90
23335;DHT22;11839;48.598;8.870;2023-08-06T05:10:27;17.20;99.90
23335;DHT22;11839;48.598;8.870;2023-08-06T05:12:54;17.30;99.90
23335;DHT22;11839;48.598;8.870;2023-08-06T05:15:21;17.40;99.90
23335;DHT22;11839;48.598;8.870;2023-08-06T05:17:47;17.70;99.90
23335;DHT22;11839;48.598;8.870;2023-08-06T05:20:16;17.80;99.90
23335;DHT22;11839;48.598;8.870;2023-08-06T05:22:44;17.90;99.90
23335;DHT22;11839;48.598;8.870;2023-08-06T05:25:13;17.80;99.90
23335;DHT22;11839;48.598;8.870;2023-08-06T05:27:40;17.70;99.90
23335;DHT22;11839;48.598;8.870;2023-08-06T05:30:08;17.50;99.90
23335;DHT22;11839;48.598;8.870;2023-08-06T05:32:35;17.00;99.90
23335;DHT22;11839;48.598;8.870;2023-08-06T05:35:01;17.20;99.90
23335;DHT22;11839;48.598;8.870;2023-08-06T05:37:29;17.50;99.90
23335;DHT22;11839;48.598;8.870;2023-08-06T05:39:56;17.50;99.90
23335;DHT22;11839;48.598;8.870;2023-08-06T05:42:23;17.70;99.90
23335;DHT22;11839;48.598;8.870;2023-08-06T05:44:50;17.70;99.90
23335;DHT22;11839;48.598;8.870;2023-08-06T05:47:16;17.60;99.90
23335;DHT22;11839;48.598;8.870;2023-08-06T05:49:45;17.40;99.90
23335;DHT22;11839;48.598;8.870;2023-08-06T05:52:11;17.50;99.90
23335;DHT22;11839;48.598;8.870;2023-08-06T05:54:40;17.60;99.90
23335;DHT22;11839;48.598;8.870;2023-08-06T05:57:07;17.50;99.90
23335;DHT22;11839;48.598;8.870;2023-08-06T05:59:33;17.40;99.90
23335;DHT22;11839;48.598;8.870;2023-08-06T06:02:00;17.30;99.90
23335;DHT22;11839;48.598;8.870;2023-08-06T06:04:28;17.20;99.90
23335;DHT22;11839;48.598;8.870;2023-08-06T06:06:55;17.10;99.90
23335;DHT22;11839;48.598;8.870;2023-08-06T06:09:22;17.10;99.90
23335;DHT22;11839;48.598;8.870;2023-08-06T06:11:50;17.00;99.90
23335;DHT22;11839;48.598;8.870;2023-08-06T06:14:17;16.90;99.90
23335;DHT22;11839;48.598;8.870;2023-08-06T06:16:44;17.00;99.90
23335;DHT22;11839;48.598;8.870;2023-08-06T06:19:11;17.10;99.90
23335;DHT22;11839;48.598;8.870;2023-08-06T06:21:37;17.00;99.90
23335;DHT22;11839;48.598;8.870;2023-08-06T06:24:05;17.20;99.90
23335;DHT22;11839;48.598;8.870;2023-08-06T06:26:33;17.30;99.90
23335;DHT22;11839;48.598;8.870;2023-08-06T06:29:01;17.20;99.90
23335;DHT22;11839;48.598;8.870;2023-08-06T06:31:28;17.00;99.90
23335;DHT22;11839;48.598;8.870;2023-08-06T06:33:55;16.70;99.90
23335;DHT22;11839;48.598;8.870;2023-08-06T06:36:21;16.60;99.90
23335;DHT22;11839;48.598;8.870;2023-08-06T06:38:49;16.40;99.90
23335;DHT22;11839;48.598;8.870;2023-08-06T06:41:16;16.50;99.90
23335;DHT22;11839;48.598;8.870;2023-08-06T06:43:42;16.40;99.90
23335;DHT22;11839;48.598;8.870;2023-08-06T06:46:10;16.40;99.90
23335;DHT22;11839;48.598;8.870;2023-08-06T06:48:37;16.50;99.90
23335;DHT22;11839;48.598;8.870;2023-08-06T06:51:04;16.50;99.90
23335;DHT22;11839;48.598;8.870;2023-08-06T06:53:31;16.70;99.90
23335;DHT22;11839;48.598;8.870;2023-08-06T06:56:02;16.80;99.90
23335;DHT22;11839;48.598;8.870;2023-08-06T06:58:30;16.60;99.90
23335;DHT22;11839;48.598;8.870;2023-08-06T07:00:56;16.60;99.90
23335;DHT22;11839;48.598;8.870;2023-08-06T07:03:24;16.60;99.90
23335;DHT22;11839;48.598;8.870;2023-08-06T07:05:51;16.60;99.90
23335;DHT22;11839;48.598;8.870;2023-08-06T07:08:18;16.70;99.90
23335;DHT22;11839;48.598;8.870;2023-08-06T07:10:45;16.70;99.90
23335;DHT22;11839;48.598;8.870;2023-08-06T07:13:12;16.60;99.90
23335;DHT22;11839;48.598;8.870;2023-08-06T07:15:38;16.60;99.90
23335;DHT22;11839;48.598;8.870;2023-08-06T07:18:05;16.60;99.90
23335;DHT22;11839;48.598;8.870;2023-08-06T07:20:33;16.70;99.90
23335;DHT22;11839;48.598;8.870;2023-08-06T07:23:00;16.70;99.90
23335;DHT22;11839;48.598;8.870;2023-08-06T07:25:27;16.70;99.90
23335;DHT22;11839;48.598;8.870;2023-08-06T07:27:54;16.70;99.90
23335;DHT22;11839;48.598;8.870;2023-08-06T07:30:22;16.80;99.90
23335;DHT22;11839;48.598;8.870;2023-08-06T07:32:49;16.90;99.90
23335;DHT22;11839;48.598;8.870;2023-08-06T07:35:16;16.90;99.90
23335;DHT22;11839;48.598;8.870;2023-08-06T07:37:44;17.00;99.90
23335;DHT22;11839;48.598;8.870;2023-08-06T07:40:11;16.90;99.90
23335;DHT22;11839;48.598;8.870;2023-08-06T07:42:39;17.10;99.90
23335;DHT22;11839;48.598;8.870;2023-08-06T07:45:07;17.10;99.90
23335;DHT22;11839;48.598;8.870;2023-08-06T07:47:34;17.10;99.90
23335;DHT22;11839;48.598;8.870;2023-08-06T07:50:01;17.30;99.90
23335;DHT22;11839;48.598;8.870;2023-08-06T07:52:28;17.40;99.90
23335;DHT22;11839;48.598;8.870;2023-08-06T07:54:56;17.60;99.90
23335;DHT22;11839;48.598;8.870;2023-08-06T07:57:24;17.60;99.90
23335;DHT22;11839;48.598;8.870;2023-08-06T07:59:50;17.40;99.90
23335;DHT22;11839;48.598;8.870;2023-08-06T08:02:19;17.50;99.90
23335;DHT22;11839;48.598;8.870;2023-08-06T08:04:45;17.50;99.90
23335;DHT22;11839;48.598;8.870;2023-08-06T08:07:13;17.40;99.90
23335;DHT22;11839;48.598;8.870;2023-08-06T08:09:39;17.40;99.90
23335;DHT22;11839;48.598;8.870;2023-08-06T08:12:08;17.50;99.90
23335;DHT22;11839;48.598;8.870;2023-08-06T08:14:34;17.10;99.90
23335;DHT22;11839;48.598;8.870;2023-08-06T08:17:08;17.00;99.90
23335;DHT22;11839;48.598;8.870;2023-08-06T08:19:36;17.00;99.90
23335;DHT22;11839;48.598;8.870;2023-08-06T08:22:03;17.10;99.90
23335;DHT22;11839;48.598;8.870;2023-08-06T08:24:29;17.20;99.90
23335;DHT22;11839;48.598;8.870;2023-08-06T08:26:56;17.10;99.90
23335;DHT22;11839;48.598;8.870;2023-08-06T08:29:24;17.00;99.90
23335;DHT22;11839;48.598;8.870;2023-08-06T08:31:51;17.00;99.90
23335;DHT22;11839;48.598;8.870;2023-08-06T08:34:18;17.10;99.90
23335;DHT22;11839;48.598;8.870;2023-08-06T08:36:45;17.10;99.90
23335;DHT22;11839;48.598;8.870;2023-08-06T08:39:13;17.10;99.90
23335;DHT22;11839;48.598;8.870;2023-08-06T08:41:39;17.10;99.90
23335;DHT22;11839;48.598;8.870;2023-08-06T08:44:09;17.40;99.90
23335;DHT22;11839;48.598;8.870;2023-08-06T08:46:38;17.00;99.90
23335;DHT22;11839;48.598;8.870;2023-08-06T08:49:06;16.90;99.90
23335;DHT22;11839;48.598;8.870;2023-08-06T08:51:33;16.60;99.90
23335;DHT22;11839;48.598;8.870;2023-08-06T08:54:03;16.70;99.90
23335;DHT22;11839;48.598;8.870;2023-08-06T08:56:32;17.00;99.90
23335;DHT22;11839;48.598;8.870;2023-08-06T08:58:59;17.20;99.90
23335;DHT22;11839;48.598;8.870;2023-08-06T09:01:26;17.30;99.90
23335;DHT22;11839;48.598;8.870;2023-08-06T09:03:56;17.40;99.90
23335;DHT22;11839;48.598;8.870;2023-08-06T09:06:24;17.50;99.90
23335;DHT22;11839;48.598;8.870;2023-08-06T09:09:00;17.30;99.90
23335;DHT22;11839;48.598;8.870;2023-08-06T09:11:27;17.50;99.90
23335;DHT22;11839;48.598;8.870;2023-08-06T09:13:57;17.70;99.90
23335;DHT22;11839;48.598;8.870;2023-08-06T09:16:25;17.90;99.90
23335;DHT22;11839;48.598;8.870;2023-08-06T09:18:52;18.00;99.90
23335;DHT22;11839;48.598;8.870;2023-08-06T09:21:20;18.00;99.90
23335;DHT22;11839;48.598;8.870;2023-08-06T09:23:46;18.00;99.90
23335;DHT22;11839;48.598;8.870;2023-08-06T09:26:13;18.00;99.90
23335;DHT22;11839;48.598;8.870;2023-08-06T09:28:43;17.80;99.90
23335;DHT22;11839;48.598;8.870;2023-08-06T09:31:09;17.60;99.90
23335;DHT22;11839;48.598;8.870;2023-08-06T09:33:37;17.70;99.90
23335;DHT22;11839;48.598;8.870;2023-08-06T09:36:07;17.70;99.90
23335;DHT22;11839;48.598;8.870;2023-08-06T09:38:39;17.40;99.90
23335;DHT22;11839;48.598;8.870;2023-08-06T09:41:06;17.50;99.90
23335;DHT22;11839;48.598;8.870;2023-08-06T09:43:40;17.60;99.90
23335;DHT22;11839;48.598;8.870;2023-08-06T09:46:11;17.60;99.90
23335;DHT22;11839;48.598;8.870;2023-08-06T09:48:39;17.20;99.90
23335;DHT22;11839;48.598;8.870;2023-08-06T09:51:08;17.30;99.90
23335;DHT22;11839;48.598;8.870;2023-08-06T09:53:38;17.30;99.90
23335;DHT22;11839;48.598;8.870;2023-08-06T09:56:07;17.40;99.90
23335;DHT22;11839;48.598;8.870;2023-08-06T09:58:35;17.30;99.90
23335;DHT22;11839;48.598;8.870;2023-08-06T10:01:04;17.10;99.90
23335;DHT22;11839;48.598;8.870;2023-08-06T10:03:32;16.90;99.90
23335;DHT22;11839;48.598;8.870;2023-08-06T10:06:00;17.10;99.90
23335;DHT22;11839;48.598;8.870;2023-08-06T10:08:31;17.10;99.90
23335;DHT22;11839;48.598;8.870;2023-08-06T10:11:00;16.90;99.90
23335;DHT22;11839;48.598;8.870;2023-08-06T10:13:30;16.90;99.90
23335;DHT22;11839;48.598;8.870;2023-08-06T10:15:57;17.10;99.90
23335;DHT22;11839;48.598;8.870;2023-08-06T10:18:24;17.00;99.90
23335;DHT22;11839;48.598;8.870;2023-08-06T10:20:51;17.30;99.90
23335;DHT22;11839;48.598;8.870;2023-08-06T10:23:18;17.60;99.90
23335;DHT22;11839;48.598;8.870;2023-08-06T10:25:53;17.50;99.90
23335;DHT22;11839;48.598;8.870;2023-08-06T10:28:34;17.30;99.90
23335;DHT22;11839;48.598;8.870;2023-08-06T10:31:04;17.20;99.90
23335;DHT22;11839;48.598;8.870;2023-08-06T10:33:41;17.20;99.90
23335;DHT22;11839;48.598;8.870;2023-08-06T10:36:09;17.20;99.90
23335;DHT22;11839;48.598;8.870;2023-08-06T10:38:44;17.20;99.90
23335;DHT22;11839;48.598;8.870;2023-08-06T10:41:15;17.30;99.90
23335;DHT22;11839;48.598;8.870;2023-08-06T10:43:44;17.40;99.90
23335;DHT22;11839;48.598;8.870;2023-08-06T10:46:22;17.50;99.90
23335;DHT22;11839;48.598;8.870;2023-08-06T10:48:49;17.30;99.90
23335;DHT22;11839;48.598;8.870;2023-08-06T10:51:17;17.20;99.90
23335;DHT22;11839;48.598;8.870;2023-08-06T10:53:45;17.40;99.90
23335;DHT22;11839;48.598;8.870;2023-08-06T10:56:12;17.60;99.90
23335;DHT22;11839;48.598;8.870;2023-08-06T10:58:40;17.60;99.90
23335;DHT22;11839;48.598;8.870;2023-08-06T11:01:08;17.30;99.90
23335;DHT22;11839;48.598;8.870;2023-08-06T11:03:36;17.40;99.90
23335;DHT22;11839;48.598;8.870;2023-08-06T11:06:03;17.30;99.90
23335;DHT22;11839;48.598;8.870;2023-08-06T11:08:33;17.20;99.90
23335;DHT22;11839;48.598;8.870;2023-08-06T11:11:08;17.30;99.90
23335;DHT22;11839;48.598;8.870;2023-08-06T11:13:36;17.20;99.90
23335;DHT22;11839;48.598;8.870;2023-08-06T11:16:03;17.10;99.90
23335;DHT22;11839;48.598;8.870;2023-08-06T11:18:31;17.10;99.90
23335;DHT22;11839;48.598;8.870;2023-08-06T11:20:58;17.20;99.90
23335;DHT22;11839;48.598;8.870;2023-08-06T11:23:26;17.10;99.90
23335;DHT22;11839;48.598;8.870;2023-08-06T11:25:54;17.30;99.90
23335;DHT22;11839;48.598;8.870;2023-08-06T11:28:20;17.30;99.90
23335;DHT22;11839;48.598;8.870;2023-08-06T11:30:48;17.40;99.90
23335;DHT22;11839;48.598;8.870;2023-08-06T11:33:17;17.30;99.90
23335;DHT22;11839;48.598;8.870;2023-08-06T11:35:47;17.20;99.90
23335;DHT22;11839;48.598;8.870;2023-08-06T11:38:14;17.40;99.90
23335;DHT22;11839;48.598;8.870;2023-08-06T11:40:43;17.30;99.90
23335;DHT22;11839;48.598;8.870;2023-08-06T11:43:10;17.20;99.90
23335;DHT22;11839;48.598;8.870;2023-08-06T11:45:37;17.00;99.90
23335;DHT22;11839;48.598;8.870;2023-08-06T11:48:05;16.90;99.90
23335;DHT22;11839;48.598;8.870;2023-08-06T11:50:35;17.10;99.90
23335;DHT22;11839;48.598;8.870;2023-08-06T11:53:04;17.30;99.90
23335;DHT22;11839;48.598;8.870;2023-08-06T11:55:31;17.50;99.90
23335;DHT22;11839;48.598;8.870;2023-08-06T11:57:59;17.70;99.90
23335;DHT22;11839;48.598;8.870;2023-08-06T12:00:29;17.60;99.90
23335;DHT22;11839;48.598;8.870;2023-08-06T12:02:56;17.10;99.90
23335;DHT22;11839;48.598;8.870;2023-08-06T12:05:28;16.60;99.90
23335;DHT22;11839;48.598;8.870;2023-08-06T12:07:57;16.50;99.90
23335;DHT22;11839;48.598;8.870;2023-08-06T12:10:26;16.90;99.90
23335;DHT22;11839;48.598;8.870;2023-08-06T12:12:54;17.30;99.90
23335;DHT22;11839;48.598;8.870;2023-08-06T12:15:21;17.20;99.90
23335;DHT22;11839;48.598;8.870;2023-08-06T12:17:48;17.10;99.90
23335;DHT22;11839;48.598;8.870;2023-08-06T12:20:15;17.40;99.90
23335;DHT22;11839;48.598;8.870;2023-08-06T12:22:42;17.00;99.90
23335;DHT22;11839;48.598;8.870;2023-08-06T12:25:10;17.00;99.90
23335;DHT22;11839;48.598;8.870;2023-08-06T12:27:40;17.00;99.90
23335;DHT22;11839;48.598;8.870;2023-08-06T12:30:07;17.20;99.90
23335;DHT22;11839;48.598;8.870;2023-08-06T12:32:35;17.10;99.90
23335;DHT22;11839;48.598;8.870;2023-08-06T12:35:02;17.20;99.90
23335;DHT22;11839;48.598;8.870;2023-08-06T12:37:30;17.10;99.90
23335;DHT22;11839;48.598;8.870;2023-08-06T12:39:56;17.10;99.90
23335;DHT22;11839;48.598;8.870;2023-08-06T12:42:23;17.40;99.90
23335;DHT22;11839;48.598;8.870;2023-08-06T12:44:52;17.80;99.90
23335;DHT22;11839;48.598;8.870;2023-08-06T12:47:19;17.90;99.90
23335;DHT22;11839;48.598;8.870;2023-08-06T12:49:46;17.90;99.90
23335;DHT22;11839;48.598;8.870;2023-08-06T12:52:13;17.50;99.90
23335;DHT22;11839;48.598;8.870;2023-08-06T12:54:40;17.60;99.90
23335;DHT22;11839;48.598;8.870;2023-08-06T12:57:07;18.00;99.90
23335;DHT22;11839;48.598;8.870;2023-08-06T12:59:34;18.70;99.90
23335;DHT22;11839;48.598;8.870;2023-08-06T13:02:03;18.80;99.90
23335;DHT22;11839;48.598;8.870;2023-08-06T13:04:30;18.80;99.90
23335;DHT22;11839;48.598;8.870;2023-08-06T13:06:59;18.90;99.90
23335;DHT22;11839;48.598;8.870;2023-08-06T13:09:26;19.50;99.90
23335;DHT22;11839;48.598;8.870;2023-08-06T13:11:53;19.70;99.90
23335;DHT22;11839;48.598;8.870;2023-08-06T13:14:20;20.00;99.90
23335;DHT22;11839;48.598;8.870;2023-08-06T13:16:47;19.90;99.90
23335;DHT22;11839;48.598;8.870;2023-08-06T13:19:15;19.80;99.90
23335;DHT22;11839;48.598;8.870;2023-08-06T13:21:59;19.60;99.90
23335;DHT22;11839;48.598;8.870;2023-08-06T13:24:26;19.50;99.90
23335;DHT22;11839;48.598;8.870;2023-08-06T13:26:53;18.80;99.90
23335;DHT22;11839;48.598;8.870;2023-08-06T13:29:21;18.80;99.90
23335;DHT22;11839;48.598;8.870;2023-08-06T13:31:47;18.80;99.90
23335;DHT22;11839;48.598;8.870;2023-08-06T13:34:15;18.80;99.90
23335;DHT22;11839;48.598;8.870;2023-08-06T13:36:43;18.80;99.90
23335;DHT22;11839;48.598;8.870;2023-08-06T13:39:08;18.60;99.90
23335;DHT22;11839;48.598;8.870;2023-08-06T13:41:36;18.80;99.90
23335;DHT22;11839;48.598;8.870;2023-08-06T13:44:04;19.00;99.90
23335;DHT22;11839;48.598;8.870;2023-08-06T13:46:33;19.30;99.90
23335;DHT22;11839;48.598;8.870;2023-08-06T13:48:59;19.70;99.90
23335;DHT22;11839;48.598;8.870;2023-08-06T13:51:27;20.20;99.90
23335;DHT22;11839;48.598;8.870;2023-08-06T13:53:54;19.70;99.90
23335;DHT22;11839;48.598;8.870;2023-08-06T13:56:23;20.80;99.90
23335;DHT22;11839;48.598;8.870;2023-08-06T13:58:52;21.50;99.90
23335;DHT22;11839;48.598;8.870;2023-08-06T14:01:19;21.20;99.90
23335;DHT22;11839;48.598;8.870;2023-08-06T14:03:46;21.20;99.90
23335;DHT22;11839;48.598;8.870;2023-08-06T14:06:13;21.00;99.90
23335;DHT22;11839;48.598;8.870;2023-08-06T14:08:41;20.50;99.90
23335;DHT22;11839;48.598;8.870;2023-08-06T14:11:08;20.50;99.90
23335;DHT22;11839;48.598;8.870;2023-08-06T14:13:36;20.00;99.90
23335;DHT22;11839;48.598;8.870;2023-08-06T14:16:03;19.80;99.90
23335;DHT22;11839;48.598;8.870;2023-08-06T14:18:29;19.20;99.90
23335;DHT22;11839;48.598;8.870;2023-08-06T14:20:56;19.20;99.90
23335;DHT22;11839;48.598;8.870;2023-08-06T14:23:23;19.20;99.90
23335;DHT22;11839;48.598;8.870;2023-08-06T14:25:51;19.40;99.90
23335;DHT22;11839;48.598;8.870;2023-08-06T14:28:18;18.90;99.90
23335;DHT22;11839;48.598;8.870;2023-08-06T14:30:45;18.20;99.90
23335;DHT22;11839;48.598;8.870;2023-08-06T14:33:12;17.80;99.90
23335;DHT22;11839;48.598;8.870;2023-08-06T14:35:39;17.30;99.90
23335;DHT22;11839;48.598;8.870;2023-08-06T14:38:05;17.50;99.90
23335;DHT22;11839;48.598;8.870;2023-08-06T14:40:33;17.50;99.90
23335;DHT22;11839;48.598;8.870;2023-08-06T14:43:05;18.40;99.90
23335;DHT22;11839;48.598;8.870;2023-08-06T14:45:31;19.40;99.90
23335;DHT22;11839;48.598;8.870;2023-08-06T14:47:58;20.30;99.90
23335;DHT22;11839;48.598;8.870;2023-08-06T14:50:25;19.80;99.90
23335;DHT22;11839;48.598;8.870;2023-08-06T14:52:52;19.30;99.90
23335;DHT22;11839;48.598;8.870;2023-08-06T14:55:23;18.70;99.90
23335;DHT22;11839;48.598;8.870;2023-08-06T14:57:50;18.60;99.90
23335;DHT22;11839;48.598;8.870;2023-08-06T15:00:19;18.40;99.90
23335;DHT22;11839;48.598;8.870;2023-08-06T15:02:46;18.20;99.90
23335;DHT22;11839;48.598;8.870;2023-08-06T15:05:14;18.30;99.90
23335;DHT22;11839;48.598;8.870;2023-08-06T15:07:40;18.60;99.90
23335;DHT22;11839;48.598;8.870;2023-08-06T15:10:08;19.10;99.90
23335;DHT22;11839;48.598;8.870;2023-08-06T15:12:34;19.20;99.90
23335;DHT22;11839;48.598;8.870;2023-08-06T15:15:02;19.50;99.90
23335;DHT22;11839;48.598;8.870;2023-08-06T15:17:30;19.30;99.90
23335;DHT22;11839;48.598;8.870;2023-08-06T15:19:57;19.30;99.90
23335;DHT22;11839;48.598;8.870;2023-08-06T15:22:24;19.10;99.90
23335;DHT22;11839;48.598;8.870;2023-08-06T15:24:50;18.70;99.90
23335;DHT22;11839;48.598;8.870;2023-08-06T15:27:17;18.60;99.90
23335;DHT22;11839;48.598;8.870;2023-08-06T15:29:44;18.50;99.90
23335;DHT22;11839;48.598;8.870;2023-08-06T15:32:11;18.70;99.90